»·PEaware :: SWA835 KLAS-KSAN

SWA835 :: KLAS-KSAN

FLIGHT INFORMATION

Flight Status: Arrived
Operator:
Southwest Airlines
More flights by this operator :: More flights under this callsign
Pilot: Pratham R. (19019)
Aircraft: BOEING 737-800
(B738)
More flights by this aircraft type
Origin: KLAS McCarran Intl
United States
Destination: KSAN San Diego Intl-Lindbergh
United States
More flights between these airports :: More routes between these airports
Route: BOACH8 LVELL LUCKI1
File this flight plan on PilotEdge
Remarks: PBN / A1B1C1D1S1S2 DOF / 180625 REG / N8305E OPR / SWA PER / C RMK / TCAS SIMBRIEF
Altitude:
(Current/Filed)
34,000ft
Speed:
(Current/Filed)
452kts
Departed: 10-Aug-18 02:56 PM
Arrived: 10-Aug-18 03:38 PM
Distance/Time
Traveled:
225nm/0:42
Distance/Time
To Go:
Arrived

Flight Plot

Page will automatically refresh every two minutes.

Flight plan parsing failed; only flown route is shown


Map Options




Map Legend


Flown Route
Filed Route
Departure Airport
Arrival Airport
Navaid (VOR, NDB)
Fix

Horizontal Profiles

Position Reports

Time Latitude Longitude Heading Altitude Ground
Speed
10-Aug-18 14:18 36.079909 -115.147058 61 2189ft 0kts
10-Aug-18 14:19 36.079909 -115.147058 61 2189ft 0kts
10-Aug-18 14:20 36.079909 -115.147058 61 2189ft 0kts
10-Aug-18 14:21 36.079909 -115.147058 61 2189ft 0kts
10-Aug-18 14:22 36.079909 -115.147058 61 2189ft 0kts
10-Aug-18 14:23 36.079909 -115.147058 61 2189ft 0kts
10-Aug-18 14:24 36.079909 -115.147058 61 2189ft 0kts
10-Aug-18 14:25 36.079909 -115.147058 61 2189ft 0kts
10-Aug-18 14:26 36.079909 -115.147058 61 2189ft 0kts
10-Aug-18 14:27 36.079909 -115.147058 61 2189ft 0kts
10-Aug-18 14:28 36.079909 -115.147058 61 2189ft 0kts
10-Aug-18 14:29 36.079909 -115.147058 61 2189ft 0kts
10-Aug-18 14:30 36.079909 -115.147058 61 2189ft 0kts
10-Aug-18 14:31 36.079909 -115.147058 61 2189ft 0kts
10-Aug-18 14:32 36.079909 -115.147058 61 2189ft 0kts
10-Aug-18 14:33 36.079909 -115.147058 61 2189ft 0kts
10-Aug-18 14:34 36.079909 -115.147058 61 2189ft 0kts
10-Aug-18 14:35 36.079909 -115.147058 61 2189ft 0kts
10-Aug-18 14:36 36.079909 -115.147058 61 2189ft 0kts
10-Aug-18 14:37 36.079909 -115.147058 61 2189ft 0kts
10-Aug-18 14:38 36.079909 -115.147058 61 2189ft 0kts
10-Aug-18 14:39 36.079909 -115.147058 61 2189ft 0kts
10-Aug-18 14:40 36.079909 -115.147058 61 2189ft 0kts
10-Aug-18 14:41 36.079909 -115.147058 61 2189ft 0kts
10-Aug-18 14:42 36.079909 -115.147058 61 2189ft 0kts
10-Aug-18 14:43 36.079909 -115.147058 61 2189ft 0kts
10-Aug-18 14:44 36.079672 -115.147410 29 2189ft 2kts
10-Aug-18 14:45 36.079177 -115.147445 335 2189ft 1kts
10-Aug-18 14:46 36.079136 -115.147420 334 2189ft 0kts
10-Aug-18 14:47 36.079136 -115.147420 334 2189ft 0kts
10-Aug-18 14:48 36.079136 -115.147420 334 2189ft 0kts
10-Aug-18 14:49 36.080111 -115.147977 336 2189ft 14kts
10-Aug-18 14:50 36.081184 -115.153553 283 2189ft 8kts
10-Aug-18 14:51 36.084229 -115.156433 336 2189ft 18kts
10-Aug-18 14:52 36.088995 -115.156645 25 2189ft 18kts
10-Aug-18 14:53 36.094078 -115.153891 24 2189ft 25kts
10-Aug-18 14:54 36.097949 -115.152426 301 2189ft 10kts
10-Aug-18 14:55 36.097989 -115.152508 301 2189ft 0kts
10-Aug-18 14:56 36.097825 -115.153975 208 2189ft 9kts
10-Aug-18 14:57 36.072458 -115.168846 205 2946ft 177kts
10-Aug-18 14:58 36.021502 -115.199424 213 5211ft 234kts
10-Aug-18 14:59 35.981610 -115.276390 242 7139ft 293kts
10-Aug-18 15:00 35.914060 -115.318323 178 10269ft 310kts
10-Aug-18 15:01 35.825233 -115.312409 175 11516ft 379kts
10-Aug-18 15:02 35.717420 -115.300340 174 14611ft 399kts
10-Aug-18 15:03 35.604905 -115.297824 182 17857ft 420kts
10-Aug-18 15:04 35.488352 -115.302559 181 18779ft 422kts
10-Aug-18 15:05 35.370157 -115.307181 181 20546ft 432kts
10-Aug-18 15:06 35.249616 -115.311892 181 23272ft 447kts
10-Aug-18 15:07 35.123912 -115.316799 181 25805ft 463kts
10-Aug-18 15:08 34.993635 -115.321876 181 28109ft 479kts
10-Aug-18 15:09 34.862567 -115.326960 182 30821ft 479kts
10-Aug-18 15:10 34.733549 -115.349926 200 33633ft 469kts
10-Aug-18 15:11 34.612444 -115.403529 201 34049ft 462kts
10-Aug-18 15:12 34.492375 -115.456292 201 34118ft 462kts
10-Aug-18 15:13 34.372924 -115.508444 201 34118ft 462kts
10-Aug-18 15:14 34.259320 -115.576531 213 34119ft 460kts
10-Aug-18 15:15 34.145652 -115.646551 202 34119ft 462kts
10-Aug-18 15:16 34.040531 -115.695383 201 34094ft 462kts
10-Aug-18 15:17 33.921070 -115.751341 202 33958ft 463kts
10-Aug-18 15:18 33.806610 -115.807198 202 33717ft 462kts
10-Aug-18 15:19 33.689104 -115.863295 201 30080ft 463kts
10-Aug-18 15:20 33.568166 -115.919878 202 27174ft 476kts
10-Aug-18 15:21 33.469278 -116.021105 235 24555ft 482kts
10-Aug-18 15:22 33.393788 -116.151624 235 22164ft 470kts
10-Aug-18 15:23 33.310685 -116.264924 212 19872ft 455kts
10-Aug-18 15:24 33.201878 -116.330796 205 17722ft 441kts
10-Aug-18 15:25 33.094178 -116.393373 205 15608ft 422kts
10-Aug-18 15:26 32.997117 -116.452265 216 13675ft 371kts
10-Aug-18 15:27 32.921801 -116.527631 221 11936ft 339kts
10-Aug-18 15:28 32.865654 -116.608788 231 9758ft 306kts
10-Aug-18 15:29 32.817754 -116.682243 230 8451ft 273kts
10-Aug-18 15:30 32.772057 -116.752078 230 7230ft 274kts
10-Aug-18 15:31 32.726606 -116.821424 230 6013ft 256kts
10-Aug-18 15:32 32.686476 -116.883701 240 4970ft 222kts
10-Aug-18 15:33 32.675917 -116.950676 281 4016ft 219kts
10-Aug-18 15:34 32.691044 -117.014914 283 2882ft 186kts
10-Aug-18 15:35 32.703757 -117.066962 283 2223ft 149kts
10-Aug-18 15:36 32.714444 -117.111176 285 1450ft 139kts
10-Aug-18 15:37 32.724653 -117.152548 283 611ft 130kts
10-Aug-18 15:38 32.733758 -117.190911 285 25ft 88kts
10-Aug-18 15:39 32.734838 -117.199271 265 25ft 6kts
10-Aug-18 15:40 32.735309 -117.202155 230 25ft 9kts
10-Aug-18 15:41 32.733763 -117.203152 262 25ft 3kts
10-Aug-18 15:42 32.733752 -117.203510 268 25ft 0kts
10-Aug-18 15:43 32.733752 -117.203510 268 25ft 0kts
10-Aug-18 15:44 32.733752 -117.203510 268 25ft 0kts
10-Aug-18 15:45 32.733752 -117.203510 268 25ft 0kts
10-Aug-18 15:46 32.733752 -117.203510 268 25ft 0kts
10-Aug-18 15:47 32.733752 -117.203510 268 25ft 0kts
10-Aug-18 15:48 32.733752 -117.203510 268 25ft 0kts
10-Aug-18 15:49 32.733752 -117.203510 268 25ft 0kts
10-Aug-18 15:50 32.733752 -117.203510 268 25ft 0kts
10-Aug-18 15:51 32.733752 -117.203510 268 25ft 0kts
10-Aug-18 15:52 32.733752 -117.203510 268 25ft 0kts
10-Aug-18 15:53 32.733752 -117.203510 268 25ft 0kts
10-Aug-18 15:54 32.733752 -117.203510 268 25ft 0kts

Navigation Log

Ident Type
Flight plan parsing failed, navigation log unavailable